Terminal Aerodrome Forecast
Issued by NWS

Home | Current Version | Previous Version | Text Only | Print | Product List | Glossary On
Versions: 1 2 3 4 5 6 7 8 9 10 11 12 13 14 15 16
000
FTUS45 KRIW 212328
TAFCPR
TAF
KCPR 212328Z 2200/2224 24007KT P6SM FEW100
     FM220400 23014KT P6SM SKC
     FM221400 22018G28KT P6SM FEW110
     FM221900 22022G30KT P6SM BKN110=

USA.gov is the U.S. government's official web portal to all federal, state and local government web resources and services.